Time;durP1;ratioP1;P1;durP2;ratioP2;P2;SDS_P1;SDS_P2;PMS_P1;PMS_P2;Temp;Humidity;BMP_temperature;BMP_pressure;BME280_temperature;BME280_humidity;BME280_pressure;Samples;Min_cycle;Max_cycle;Signal;HPM_P1;HPM_P2
2022/01/23 00:02:20;;;;;;;1.25;0.40;;;24.30;85.00;;;;;;5074677;28;20035;-48
2022/01/23 00:04:47;;;;;;;;;;;24.30;85.60;;;;;;5075112;28;20036;-62
2022/01/23 00:07:15;;;;;;;1.02;0.60;;;24.40;84.80;;;;;;5074123;28;20351;-54
2022/01/23 00:09:43;;;;;;;1.23;0.50;;;24.40;84.90;;;;;;5074320;28;20036;-59
2022/01/23 00:12:16;;;;;;;1.05;0.40;;;24.40;84.80;;;;;;5074605;28;20068;-55
2022/01/23 00:17:35;;;;;;;1.35;0.40;;;24.40;85.20;;;;;;5074613;28;20079;-57
2022/01/23 00:20:09;;;;;;;2.42;0.75;;;24.50;85.00;;;;;;5074148;28;20032;-57
2022/01/23 00:30:40;;;;;;;1.88;0.60;;;24.50;85.20;;;;;;5074748;28;20501;-58
2022/01/23 00:33:09;;;;;;;1.40;0.28;;;24.50;85.30;;;;;;5075122;28;20339;-56
2022/01/23 00:35:39;;;;;;;1.35;0.60;;;24.50;85.20;;;;;;5074411;28;20028;-52
2022/01/23 00:38:08;;;;;;;2.72;0.57;;;24.50;85.10;;;;;;5074233;28;20087;-56
2022/01/23 00:40:37;;;;;;;0.60;0.30;;;24.40;85.10;;;;;;5074463;28;20101;-58
2022/01/23 00:43:14;;;;;;;0.88;0.47;;;24.50;85.30;;;;;;5073873;28;20025;-51
2022/01/23 00:45:45;;;;;;;1.23;0.55;;;24.50;85.30;;;;;;5074168;28;20082;-53
2022/01/23 00:48:14;;;;;;;2.83;0.43;;;24.50;85.00;;;;;;5074106;28;20386;-56
2022/01/23 00:50:44;;;;;;;0.93;0.55;;;24.40;85.30;;;;;;5074192;28;20048;-46
2022/01/23 00:53:13;;;;;;;1.48;0.50;;;24.40;85.70;;;;;;5073152;28;20552;-54
2022/01/23 00:55:43;;;;;;;1.52;0.47;;;24.40;85.80;;;;;;5073846;28;20064;-59
2022/01/23 00:58:11;;;;;;;0.65;0.40;;;24.40;85.80;;;;;;5073455;28;20063;-55
2022/01/23 01:00:40;;;;;;;0.95;0.57;;;24.40;85.90;;;;;;5073069;28;20072;-60
2022/01/23 01:03:09;;;;;;;1.10;0.40;;;24.40;85.80;;;;;;5073627;28;20433;-50
2022/01/23 01:05:37;;;;;;;0.73;0.28;;;24.40;85.70;;;;;;5072004;28;20028;-47
2022/01/23 01:08:06;;;;;;;0.65;0.32;;;24.40;85.80;;;;;;5071711;28;20046;-58
2022/01/23 01:10:50;;;;;;;1.00;0.30;;;24.50;85.90;;;;;;5073619;28;20024;-61
2022/01/23 01:13:18;;;;;;;1.55;0.68;;;24.50;85.90;;;;;;5073034;28;20024;-54
2022/01/23 01:16:02;;;;;;;0.73;0.30;;;24.50;85.80;;;;;;5073009;28;20113;-60
2022/01/23 01:33:15;;;;;;;2.05;0.63;;;24.60;86.30;;;;;;5073772;28;20068;-56
2022/01/23 01:35:23;;;;;;;1.13;0.40;;;24.60;85.90;;;;;;5066976;28;20146;-55
2022/01/23 01:37:51;;;;;;;0.50;0.30;;;24.60;85.80;;;;;;5072987;28;20025;-56
2022/01/23 01:40:19;;;;;;;3.25;0.68;;;24.60;86.60;;;;;;5072594;28;20385;-61
2022/01/23 01:42:47;;;;;;;0.73;0.30;;;24.60;86.90;;;;;;5073085;28;20025;-60
2022/01/23 01:45:20;;;;;;;1.33;0.50;;;24.70;85.80;;;;;;5072752;28;20375;-56
2022/01/23 01:47:52;;;;;;;0.98;0.40;;;24.70;86.00;;;;;;5073445;28;20119;-56
2022/01/23 01:50:20;;;;;;;1.83;0.40;;;24.70;87.20;;;;;;5073200;28;20060;-61
2022/01/23 01:52:48;;;;;;;1.92;0.40;;;24.70;88.70;;;;;;5071943;28;20075;-56
2022/01/23 01:55:23;;;;;;;0.93;0.38;;;24.70;87.10;;;;;;5071648;28;20050;-57
2022/01/23 01:57:55;;;;;;;1.15;0.45;;;24.70;87.90;;;;;;5072417;28;20162;-58
2022/01/23 02:08:24;;;;;;;0.73;0.40;;;24.70;87.40;;;;;;5071914;28;20145;-59
2022/01/23 02:10:58;;;;;;;0.70;0.43;;;24.70;86.70;;;;;;5072438;28;20107;-60
2022/01/23 02:57:19;;;;;;;1.30;0.55;;;25.50;81.80;;;;;;5075667;28;20033;-54
2022/01/23 02:59:48;;;;;;;2.65;0.93;;;25.60;81.40;;;;;;5076389;28;20029;-60
2022/01/23 03:02:34;;;;;;;1.27;0.60;;;25.70;81.50;;;;;;5075479;28;20028;-57
2022/01/23 03:05:03;;;;;;;5.20;1.33;;;25.70;79.90;;;;;;5075789;28;20181;-56
2022/01/23 03:10:05;;;;;;;1.20;0.40;;;25.80;80.00;;;;;;5075651;28;20040;-56
2022/01/23 03:26:15;;;;;;;2.72;0.68;;;25.90;80.20;;;;;;5075616;28;20051;-57
2022/01/23 03:31:40;;;;;;;2.75;0.80;;;25.90;80.40;;;;;;5074796;28;20024;-55
2022/01/23 03:34:08;;;;;;;3.08;1.38;;;25.90;80.90;;;;;;5074029;28;20453;-58
2022/01/23 03:36:37;;;;;;;2.65;0.50;;;25.90;81.30;;;;;;5074324;28;20211;-60
2022/01/23 03:39:09;;;;;;;1.05;0.40;;;25.90;82.60;;;;;;5074882;28;20359;-52
2022/01/23 03:41:39;;;;;;;3.30;0.50;;;25.90;83.20;;;;;;5075059;28;20024;-55
2022/01/23 03:44:08;;;;;;;4.53;0.60;;;26.00;83.40;;;;;;5074443;28;20066;-50
2022/01/23 03:49:31;;;;;;;4.77;0.63;;;25.90;84.30;;;;;;5074355;28;20521;-55
2022/01/23 03:52:11;;;;;;;0.88;0.52;;;26.00;84.20;;;;;;5074964;28;20064;-55
2022/01/23 03:54:41;;;;;;;1.88;0.57;;;25.90;83.90;;;;;;5072834;28;20032;-55
2022/01/23 03:57:09;;;;;;;2.35;0.40;;;25.90;82.10;;;;;;5074286;28;20378;-51
2022/01/23 03:59:37;;;;;;;2.42;0.57;;;25.90;81.60;;;;;;5074434;28;20024;-50
2022/01/23 04:02:06;;;;;;;4.43;0.70;;;25.90;81.70;;;;;;5072639;28;20032;-54
2022/01/23 04:04:40;;;;;;;3.63;0.73;;;25.90;82.10;;;;;;5072705;28;20066;-53
2022/01/23 04:07:10;;;;;;;0.82;0.40;;;25.90;82.00;;;;;;5072542;28;20467;-53
2022/01/23 04:09:38;;;;;;;1.40;0.60;;;25.90;81.60;;;;;;5073899;28;20052;-54
2022/01/23 04:12:08;;;;;;;1.25;0.57;;;25.90;83.60;;;;;;5074722;28;20463;-54
2022/01/23 04:14:41;;;;;;;5.57;0.60;;;25.90;84.80;;;;;;5074502;28;20038;-58
2022/01/23 05:00:46;;;;;;;4.55;0.40;;;26.00;81.90;;;;;;5073924;28;20031;-54
2022/01/23 05:06:02;;;;;;;3.33;0.40;;;26.00;80.50;;;;;;5072372;28;20050;-60
2022/01/23 05:08:33;;;;;;;4.13;0.85;;;25.90;80.80;;;;;;5073689;28;20039;-61
2022/01/23 05:11:06;;;;;;;4.47;0.63;;;25.90;81.70;;;;;;5072379;28;20048;-58
2022/01/23 05:13:35;;;;;;;2.95;0.40;;;25.90;82.20;;;;;;5073322;28;20021;-60
2022/01/23 05:16:03;;;;;;;2.22;0.40;;;25.90;83.30;;;;;;5072588;28;20511;-53
2022/01/23 05:18:35;;;;;;;2.53;0.35;;;25.90;83.30;;;;;;5073976;28;20118;-59
2022/01/23 05:21:17;;;;;;;;;;;25.90;82.80;;;;;;5074027;28;20021;-55
2022/01/23 05:23:44;;;;;;;1.17;0.52;;;25.90;83.00;;;;;;5073770;28;19905;-61
2022/01/23 05:26:12;;;;;;;3.03;0.43;;;25.90;82.40;;;;;;5072906;28;20463;-57
2022/01/23 05:28:39;;;;;;;2.80;0.70;;;26.00;82.00;;;;;;5073272;28;20147;-57
2022/01/23 05:31:07;;;;;;;8.00;1.35;;;26.00;83.10;;;;;;5055611;28;20487;-52
2022/01/23 05:33:34;;;;;;;1.58;0.50;;;26.10;82.60;;;;;;5073390;28;20109;-57
2022/01/23 05:36:01;;;;;;;1.80;0.63;;;26.00;82.30;;;;;;5072702;28;20035;-59
2022/01/23 05:38:30;;;;;;;4.55;0.70;;;26.00;82.70;;;;;;5073032;28;20028;-55
2022/01/23 05:40:58;;;;;;;4.72;0.65;;;26.10;82.60;;;;;;5073135;28;20344;-60
2022/01/23 05:43:26;;;;;;;2.25;0.57;;;26.10;82.60;;;;;;5073226;28;20067;-60
2022/01/23 05:45:53;;;;;;;0.95;0.40;;;26.10;82.30;;;;;;5072752;28;20031;-57
2022/01/23 05:48:21;;;;;;;2.42;0.50;;;26.10;82.50;;;;;;5072999;28;20032;-57
2022/01/23 05:50:49;;;;;;;2.42;0.40;;;26.10;82.60;;;;;;5072657;28;20204;-57
2022/01/23 05:53:17;;;;;;;1.10;0.47;;;26.00;82.80;;;;;;5072783;28;20028;-51
2022/01/23 05:55:44;;;;;;;1.02;0.40;;;26.00;83.30;;;;;;5071371;28;20044;-60
2022/01/23 05:58:11;;;;;;;1.48;0.70;;;26.00;83.80;;;;;;5072592;28;20019;-59
2022/01/23 06:00:39;;;;;;;1.73;0.40;;;26.00;83.80;;;;;;5072825;28;20024;-57
2022/01/23 06:03:06;;;;;;;1.50;0.47;;;26.00;84.10;;;;;;5072820;28;20047;-58
2022/01/23 06:05:33;;;;;;;1.27;0.43;;;25.90;83.00;;;;;;5072572;28;20320;-61
2022/01/23 06:08:01;;;;;;;1.67;0.43;;;25.90;84.10;;;;;;5072101;28;20456;-58
2022/01/23 06:10:35;;;;;;;2.47;0.30;;;25.90;84.20;;;;;;5072501;28;20177;-62
2022/01/23 06:13:03;;;;;;;3.15;0.45;;;25.90;83.80;;;;;;5072538;28;20155;-63
2022/01/23 06:15:30;;;;;;;1.35;0.40;;;25.90;83.50;;;;;;5072214;28;20479;-58
2022/01/23 06:17:57;;;;;;;0.98;0.40;;;25.90;83.50;;;;;;5071718;28;20485;-54
2022/01/23 06:20:25;;;;;;;1.60;0.47;;;25.90;83.80;;;;;;5072615;28;20025;-61
2022/01/23 06:22:52;;;;;;;3.00;0.40;;;25.80;84.50;;;;;;5072311;28;20051;-58
2022/01/23 06:25:20;;;;;;;1.35;0.30;;;25.80;84.60;;;;;;5072222;28;20027;-55
2022/01/23 06:27:48;;;;;;;0.70;0.40;;;25.80;84.50;;;;;;5072199;28;20364;-60
2022/01/23 06:30:17;;;;;;;2.28;0.75;;;25.80;83.90;;;;;;5072380;28;20077;-54
2022/01/23 06:32:44;;;;;;;1.50;0.38;;;25.70;84.70;;;;;;5072446;28;20463;-59
2022/01/23 06:35:11;;;;;;;0.55;0.28;;;25.70;84.90;;;;;;5072389;28;20078;-60
2022/01/23 06:37:39;;;;;;;1.65;0.30;;;25.70;84.90;;;;;;5072512;28;20035;-59
2022/01/23 06:40:10;;;;;;;1.48;0.40;;;25.70;85.00;;;;;;5072350;28;20074;-58
2022/01/23 06:42:37;;;;;;;0.38;0.20;;;25.70;84.30;;;;;;5072155;28;20017;-54
2022/01/23 06:45:05;;;;;;;2.03;0.60;;;25.60;84.90;;;;;;5072568;28;20024;-61
2022/01/23 06:47:33;;;;;;;2.85;0.47;;;25.60;84.50;;;;;;5072263;28;20025;-55
2022/01/23 06:50:00;;;;;;;3.47;1.27;;;25.60;85.00;;;;;;5072354;28;20055;-61
2022/01/23 06:52:28;;;;;;;1.55;0.60;;;25.60;84.90;;;;;;5072115;28;20024;-63
2022/01/23 06:54:55;;;;;;;1.25;0.30;;;25.60;84.90;;;;;;5072161;28;20051;-60
2022/01/23 06:57:22;;;;;;;1.30;0.40;;;25.60;84.30;;;;;;5072203;28;20379;-61
2022/01/23 06:59:50;;;;;;;1.77;0.50;;;25.60;85.30;;;;;;5072130;28;20035;-61
2022/01/23 07:02:17;;;;;;;0.70;0.30;;;25.50;84.90;;;;;;5072145;28;20017;-59
2022/01/23 07:04:45;;;;;;;1.33;0.52;;;25.50;84.60;;;;;;5072783;28;20028;-61
2022/01/23 07:07:12;;;;;;;1.67;0.30;;;25.50;85.30;;;;;;5072007;28;20036;-58
2022/01/23 07:09:39;;;;;;;1.02;0.55;;;25.50;85.50;;;;;;5072194;28;20036;-60
2022/01/23 07:12:07;;;;;;;0.50;0.30;;;25.50;85.60;;;;;;5071971;28;20059;-62
2022/01/23 07:14:34;;;;;;;2.38;0.63;;;25.40;85.50;;;;;;5072105;28;20153;-62
2022/01/23 07:17:03;;;;;;;1.88;0.43;;;25.40;85.60;;;;;;5071886;28;20336;-60
2022/01/23 07:19:30;;;;;;;2.28;0.32;;;25.30;85.50;;;;;;5072104;28;20028;-54
2022/01/23 07:21:58;;;;;;;3.05;0.40;;;25.30;85.60;;;;;;5070045;28;20024;-59
2022/01/23 07:24:25;;;;;;;1.17;0.45;;;25.30;86.00;;;;;;5071839;28;20048;-58
2022/01/23 07:26:53;;;;;;;2.10;0.40;;;25.30;86.40;;;;;;5071808;28;20093;-59
2022/01/23 07:29:20;;;;;;;2.13;0.50;;;25.20;86.20;;;;;;5071330;28;20029;-59
2022/01/23 07:31:59;;;;;;;1.23;0.30;;;25.20;86.30;;;;;;5071359;28;20078;-59
2022/01/23 07:34:27;;;;;;;0.45;0.30;;;25.20;86.30;;;;;;5071713;28;20540;-58
2022/01/23 07:36:55;;;;;;;0.38;0.30;;;25.20;87.00;;;;;;5071118;28;20435;-59
2022/01/23 07:39:22;;;;;;;0.80;0.22;;;25.20;86.80;;;;;;5075010;28;20056;-62
2022/01/23 07:41:50;;;;;;;1.52;0.68;;;25.10;87.00;;;;;;5075886;28;20032;-60
2022/01/23 07:44:17;;;;;;;2.00;0.50;;;25.10;86.90;;;;;;5074733;28;20143;-60
2022/01/23 07:46:45;;;;;;;3.60;0.30;;;25.10;87.20;;;;;;5073664;28;20024;-60
2022/01/23 07:49:12;;;;;;;0.45;0.20;;;25.00;87.30;;;;;;5074865;28;20082;-61
2022/01/23 07:51:40;;;;;;;0.93;0.30;;;25.00;87.50;;;;;;5074608;28;20020;-61
2022/01/23 07:54:07;;;;;;;1.13;0.28;;;25.00;87.40;;;;;;5072965;28;20401;-62
2022/01/23 07:56:36;;;;;;;1.95;0.80;;;25.00;87.50;;;;;;5074785;28;20045;-58
2022/01/23 07:59:03;;;;;;;0.32;0.20;;;25.00;87.60;;;;;;5075140;28;20029;-56
2022/01/23 08:01:31;;;;;;;0.63;0.35;;;25.00;87.50;;;;;;5074603;28;20033;-51
2022/01/23 08:04:01;;;;;;;0.30;0.15;;;25.00;87.60;;;;;;5073658;28;20398;-57
2022/01/23 08:06:32;;;;;;;0.55;0.20;;;25.00;87.50;;;;;;5074792;28;20165;-57
2022/01/23 08:09:00;;;;;;;0.35;0.20;;;24.90;87.50;;;;;;5075225;28;20048;-59
2022/01/23 08:11:27;;;;;;;0.70;0.20;;;24.90;87.60;;;;;;5073975;28;20387;-54
2022/01/23 08:13:54;;;;;;;1.60;0.43;;;24.90;87.70;;;;;;5073166;28;20051;-56
2022/01/23 08:16:22;;;;;;;0.52;0.25;;;24.90;87.70;;;;;;5074703;28;20125;-58
2022/01/23 08:18:49;;;;;;;1.08;0.28;;;24.80;87.70;;;;;;5075014;28;20450;-62
2022/01/23 08:21:17;;;;;;;0.63;0.30;;;24.80;87.80;;;;;;5074571;28;20025;-58
2022/01/23 08:23:44;;;;;;;0.95;0.40;;;24.80;87.90;;;;;;5074474;28;20029;-59
2022/01/23 08:26:12;;;;;;;0.75;0.32;;;24.80;88.00;;;;;;5074477;28;20029;-59
2022/01/23 08:28:39;;;;;;;0.32;0.30;;;24.80;88.10;;;;;;5075199;28;20036;-57
2022/01/23 08:31:07;;;;;;;0.28;0.22;;;24.70;88.10;;;;;;5075002;28;20041;-53
2022/01/23 08:33:34;;;;;;;0.57;0.30;;;24.80;88.30;;;;;;5073748;28;20039;-56
2022/01/23 08:36:02;;;;;;;0.52;0.30;;;24.70;88.30;;;;;;5074590;28;20158;-48
2022/01/23 08:38:29;;;;;;;1.13;0.30;;;24.70;88.30;;;;;;5074626;28;20052;-51
2022/01/23 08:43:39;;;;;;;0.45;0.30;;;24.70;88.40;;;;;;5075041;28;20016;-60
2022/01/23 08:46:07;;;;;;;0.90;0.60;;;24.70;88.60;;;;;;5073117;28;20081;-55
2022/01/23 08:48:34;;;;;;;0.70;0.22;;;24.60;88.60;;;;;;5074458;28;20039;-61
2022/01/23 08:51:02;;;;;;;1.05;0.38;;;24.60;88.70;;;;;;5073835;28;20382;-52
2022/01/23 08:53:29;;;;;;;0.22;0.17;;;24.60;88.80;;;;;;5073805;28;20059;-58
2022/01/23 08:55:57;;;;;;;0.32;0.22;;;24.60;88.80;;;;;;5073113;28;20112;-51
2022/01/23 08:58:24;;;;;;;0.65;0.25;;;24.50;88.80;;;;;;5074421;28;20027;-57
2022/01/23 09:00:52;;;;;;;0.40;0.20;;;24.50;89.00;;;;;;5073506;28;20028;-58
2022/01/23 09:03:19;;;;;;;0.70;0.40;;;24.50;89.00;;;;;;5073835;28;20047;-59
2022/01/23 09:05:46;;;;;;;0.35;0.22;;;24.50;89.10;;;;;;5072337;28;20110;-61
2022/01/23 09:08:14;;;;;;;1.08;0.40;;;24.50;89.20;;;;;;5073478;28;20029;-59
2022/01/23 09:10:52;;;;;;;1.00;0.40;;;24.40;89.20;;;;;;5073347;28;20035;-59
2022/01/23 09:13:40;;;;;;;0.60;0.35;;;24.40;89.20;;;;;;5073466;28;20032;-59
2022/01/23 09:16:08;;;;;;;1.20;0.60;;;24.40;89.30;;;;;;5073515;28;20094;-58
2022/01/23 09:18:36;;;;;;;0.50;0.40;;;24.40;89.30;;;;;;5073698;28;20038;-57
2022/01/23 09:21:04;;;;;;;0.20;0.20;;;24.40;89.40;;;;;;5073268;28;20021;-57
2022/01/23 09:23:32;;;;;;;0.63;0.20;;;24.30;89.40;;;;;;5073114;28;20020;-58
2022/01/23 09:26:06;;;;;;;0.50;0.30;;;24.30;89.50;;;;;;5073571;28;20025;-59
2022/01/23 09:28:34;;;;;;;1.33;0.50;;;24.30;89.60;;;;;;5072995;28;20051;-59
2022/01/23 09:31:02;;;;;;;0.38;0.20;;;24.30;89.60;;;;;;5073911;28;20027;-60
2022/01/23 09:33:32;;;;;;;0.98;0.30;;;24.30;89.60;;;;;;5072396;28;20035;-51
2022/01/23 09:36:02;;;;;;;1.88;0.60;;;24.30;89.60;;;;;;5074087;28;20021;-53
2022/01/23 09:38:32;;;;;;;1.75;0.55;;;24.30;89.70;;;;;;5072476;28;20028;-56
2022/01/23 09:41:01;;;;;;;0.60;0.30;;;24.20;89.70;;;;;;5073747;28;20492;-53
2022/01/23 09:43:30;;;;;;;0.90;0.57;;;24.20;89.70;;;;;;5073967;28;20163;-58
2022/01/23 09:45:57;;;;;;;0.90;0.40;;;24.20;89.80;;;;;;5072685;28;20413;-61
2022/01/23 09:48:25;;;;;;;1.33;0.40;;;24.20;89.90;;;;;;5073876;28;20089;-63
2022/01/23 09:50:53;;;;;;;0.60;0.30;;;24.20;89.90;;;;;;5073536;28;20046;-59
2022/01/23 09:53:23;;;;;;;0.57;0.30;;;24.10;89.80;;;;;;5073501;28;20028;-59
2022/01/23 09:55:54;;;;;;;0.73;0.40;;;24.10;89.90;;;;;;5073203;28;20513;-58
2022/01/23 09:58:25;;;;;;;0.68;0.47;;;24.10;89.90;;;;;;5073422;28;20032;-61
2022/01/23 10:00:53;;;;;;;2.75;0.50;;;24.10;90.00;;;;;;5073429;28;20032;-58
2022/01/23 10:03:21;;;;;;;1.20;0.35;;;24.10;90.00;;;;;;5073860;28;20028;-58
2022/01/23 10:05:59;;;;;;;0.77;0.40;;;24.10;90.00;;;;;;5073257;28;20024;-54
2022/01/23 10:08:30;;;;;;;1.40;0.52;;;24.10;90.00;;;;;;5073124;28;20114;-57
2022/01/23 10:10:58;;;;;;;0.50;0.40;;;24.10;90.00;;;;;;5073096;28;20068;-59
2022/01/23 10:13:27;;;;;;;0.50;0.30;;;24.00;90.00;;;;;;5073065;28;20391;-58
2022/01/23 10:15:55;;;;;;;0.90;0.38;;;24.00;90.00;;;;;;5073024;28;20029;-57
2022/01/23 10:18:23;;;;;;;0.70;0.30;;;24.00;90.00;;;;;;5074023;28;20024;-60
2022/01/23 10:20:50;;;;;;;0.43;0.40;;;24.00;90.00;;;;;;5072841;28;20637;-54
2022/01/23 10:23:18;;;;;;;1.50;0.60;;;24.00;89.80;;;;;;5073289;28;20028;-61
2022/01/23 10:25:48;;;;;;;0.60;0.30;;;24.00;89.70;;;;;;5073849;28;20070;-57
2022/01/23 10:28:21;;;;;;;0.20;0.20;;;23.90;89.80;;;;;;5073910;28;20467;-58
2022/01/23 10:30:58;;;;;;;1.77;0.57;;;23.90;89.80;;;;;;5073566;28;20032;-56
2022/01/23 10:33:28;;;;;;;0.32;0.20;;;23.90;89.80;;;;;;5072849;28;20102;-59
2022/01/23 10:36:19;;;;;;;0.82;0.38;;;23.90;89.90;;;;;;5072472;28;20032;-55
2022/01/23 10:38:58;;;;;;;1.38;0.50;;;23.80;90.00;;;;;;5072674;28;20025;-57
2022/01/23 10:50:09;;;;;;;0.55;0.30;;;23.80;90.10;;;;;;5072539;28;20033;-60
2022/01/23 10:52:40;;;;;;;0.40;0.30;;;23.70;90.20;;;;;;5072892;28;20017;-60
2022/01/23 10:55:27;;;;;;;0.40;0.25;;;23.70;90.20;;;;;;5072325;28;20045;-61
2022/01/23 10:58:01;;;;;;;1.08;0.40;;;23.70;90.20;;;;;;5071125;28;20028;-56
2022/01/23 11:00:40;;;;;;;1.00;0.30;;;23.70;90.30;;;;;;5073079;28;20371;-59
2022/01/23 11:03:24;;;;;;;1.05;0.30;;;23.70;90.30;;;;;;5073111;28;20584;-58
2022/01/23 11:05:53;;;;;;;0.93;0.35;;;23.60;90.30;;;;;;5072210;28;20028;-59
2022/01/23 11:08:22;;;;;;;0.20;0.20;;;23.60;90.40;;;;;;5072634;28;20027;-57
2022/01/23 11:11:08;;;;;;;0.75;0.30;;;23.60;90.40;;;;;;5072784;28;20024;-56
2022/01/23 11:19:40;;;;;;;0.75;0.55;;;23.60;90.40;;;;;;5076710;28;20024;-60
2022/01/23 11:22:15;;;;;;;1.02;0.40;;;23.60;90.40;;;;;;5076646;28;20074;-58
2022/01/23 11:24:47;;;;;;;2.13;0.38;;;23.60;90.40;;;;;;5076361;28;20035;-59
2022/01/23 11:27:17;;;;;;;0.52;0.35;;;23.50;90.40;;;;;;5076321;28;20516;-58
2022/01/23 11:30:02;;;;;;;0.50;0.30;;;23.60;90.40;;;;;;5076368;28;20379;-57
2022/01/23 11:32:36;;;;;;;0.82;0.47;;;23.60;90.40;;;;;;5076691;28;20099;-57
2022/01/23 11:35:16;;;;;;;0.40;0.22;;;23.50;90.60;;;;;;5076192;28;20056;-59
2022/01/23 11:37:51;;;;;;;0.40;0.30;;;23.50;90.30;;;;;;5075968;28;20020;-61
2022/01/23 11:40:39;;;;;;;0.98;0.50;;;23.50;90.30;;;;;;5074865;28;20107;-61
2022/01/23 11:54:36;;;;;;;0.52;0.30;;;23.50;90.30;;;;;;5075811;28;20039;-57
2022/01/23 11:57:04;;;;;;;0.40;0.15;;;23.50;90.30;;;;;;5075759;28;20033;-61
2022/01/23 11:59:41;;;;;;;0.95;0.35;;;23.50;90.30;;;;;;5074015;28;20029;-58
2022/01/23 12:02:12;;;;;;;0.82;0.22;;;23.40;90.30;;;;;;5074827;28;20028;-59
2022/01/23 12:04:42;;;;;;;0.60;0.50;;;23.40;90.30;;;;;;5074666;28;20063;-57
2022/01/23 12:07:14;;;;;;;0.43;0.30;;;23.40;90.40;;;;;;5057121;28;20114;-58
2022/01/23 12:10:05;;;;;;;0.22;0.20;;;23.40;90.40;;;;;;5075090;28;20040;-56
2022/01/23 12:12:45;;;;;;;1.33;0.55;;;23.40;90.40;;;;;;5071752;28;20044;-59
2022/01/23 12:18:29;;;;;;;0.28;0.20;;;23.40;90.40;;;;;;5075356;28;20075;-60
2022/01/23 12:20:57;;;;;;;1.27;0.20;;;23.40;90.40;;;;;;5075074;28;20097;-60
2022/01/23 12:23:25;;;;;;;0.50;0.20;;;23.30;90.40;;;;;;5074104;28;20020;-62
2022/01/23 12:25:55;;;;;;;0.88;0.60;;;23.30;90.50;;;;;;5074252;28;20067;-54
2022/01/23 12:28:28;;;;;;;0.43;0.30;;;23.30;90.50;;;;;;5074621;28;20037;-58
2022/01/23 12:31:23;;;;;;;0.40;0.32;;;23.30;90.50;;;;;;5074776;28;20035;-60
2022/01/23 12:34:01;;;;;;;0.73;0.40;;;23.30;90.50;;;;;;5074740;28;20133;-60
2022/01/23 12:36:37;;;;;;;0.45;0.30;;;23.20;90.50;;;;;;5074797;28;20521;-59
2022/01/23 12:39:11;;;;;;;1.10;0.30;;;23.20;90.50;;;;;;5074938;28;20056;-57
2022/01/23 12:42:02;;;;;;;1.02;0.17;;;23.20;90.50;;;;;;5074728;28;20094;-55
2022/01/23 12:44:42;;;;;;;0.50;0.30;;;23.20;90.60;;;;;;5074885;28;20024;-54
2022/01/23 12:47:21;;;;;;;0.73;0.30;;;23.20;90.60;;;;;;5075196;28;20031;-59
2022/01/23 12:49:51;;;;;;;1.08;0.30;;;23.20;90.60;;;;;;5074273;28;20082;-59
2022/01/23 12:52:21;;;;;;;0.57;0.20;;;23.20;90.70;;;;;;5075132;28;20023;-60
2022/01/23 12:54:52;;;;;;;0.52;0.30;;;23.20;90.70;;;;;;5074260;28;20056;-61
2022/01/23 12:57:30;;;;;;;0.10;0.10;;;23.20;90.70;;;;;;5074541;28;20048;-59
2022/01/23 13:00:01;;;;;;;0.30;0.20;;;23.20;90.70;;;;;;5074432;28;20036;-58
2022/01/23 13:02:37;;;;;;;0.75;0.32;;;23.20;90.70;;;;;;5074256;28;20032;-60
2022/01/23 13:05:04;;;;;;;0.95;0.32;;;23.20;90.70;;;;;;5073861;28;20029;-60
2022/01/23 13:10:49;;;;;;;0.25;0.20;;;23.20;90.70;;;;;;5076129;28;20040;-58
2022/01/23 13:13:36;;;;;;;0.85;0.22;;;23.20;90.70;;;;;;5074518;28;20029;-57
2022/01/23 13:18:50;;;;;;;0.28;0.28;;;23.20;90.70;;;;;;5073762;28;20025;-58
2022/01/23 13:29:57;;;;;;;0.45;0.30;;;23.20;90.70;;;;;;5073533;28;20455;-60
2022/01/23 13:32:32;;;;;;;;;;;23.10;90.70;;;;;;5074108;28;20029;-59
2022/01/23 13:35:06;;;;;;;0.55;0.20;;;23.10;90.70;;;;;;5072907;28;19909;-59
2022/01/23 13:37:41;;;;;;;1.25;0.40;;;23.10;90.70;;;;;;5073214;28;20090;-60
2022/01/23 13:40:23;;;;;;;1.10;0.32;;;23.10;91.00;;;;;;5073538;28;20025;-59
2022/01/23 13:57:35;;;;;;;1.13;0.30;;;23.10;90.70;;;;;;5073336;28;20074;-61
2022/01/23 14:02:27;;;;;;;0.80;0.40;;;23.10;90.70;;;;;;5072769;28;20060;-61
2022/01/23 14:05:03;;;;;;;1.13;0.30;;;23.10;90.70;;;;;;5072941;28;20505;-60
2022/01/23 14:07:31;;;;;;;0.40;0.10;;;23.10;90.70;;;;;;5072861;28;20027;-57
2022/01/23 14:10:16;;;;;;;0.32;0.15;;;23.10;90.70;;;;;;5072587;28;20060;-51
2022/01/23 14:12:45;;;;;;;1.08;0.30;;;23.10;90.70;;;;;;5072908;28;20074;-59
2022/01/23 14:15:16;;;;;;;0.60;0.20;;;23.10;91.00;;;;;;5073098;28;20047;-61
2022/01/23 14:18:04;;;;;;;1.30;0.40;;;23.10;90.70;;;;;;5071982;28;20032;-62
2022/01/23 14:20:36;;;;;;;0.30;0.20;;;23.10;90.70;;;;;;5072451;28;20020;-63
2022/01/23 14:23:30;;;;;;;0.70;0.40;;;23.10;90.80;;;;;;5072628;28;20144;-61
2022/01/23 14:26:00;;;;;;;0.63;0.35;;;23.10;90.80;;;;;;5071006;28;20033;-59
2022/01/23 14:28:47;;;;;;;0.30;0.28;;;23.10;91.00;;;;;;5072287;28;20044;-58
2022/01/23 14:31:20;;;;;;;0.90;0.40;;;23.10;90.80;;;;;;5072893;28;20175;-59
2022/01/23 14:33:52;;;;;;;0.30;0.10;;;23.10;90.80;;;;;;5072570;28;20020;-57
2022/01/23 14:36:23;;;;;;;;;;;23.10;90.80;;;;;;5071526;28;20047;-59
2022/01/23 14:39:13;;;;;;;0.63;0.20;;;23.10;91.10;;;;;;5072639;28;19908;-58
2022/01/23 14:41:42;;;;;;;0.75;0.22;;;23.00;90.80;;;;;;5072498;28;20028;-57
2022/01/23 14:44:22;;;;;;;1.20;0.60;;;23.00;90.80;;;;;;5072334;28;20383;-58
2022/01/23 14:46:52;;;;;;;1.23;0.40;;;23.10;90.80;;;;;;5072089;28;20025;-61
2022/01/23 14:49:26;;;;;;;0.30;0.15;;;23.00;90.80;;;;;;5072051;28;20037;-57
2022/01/23 14:51:56;;;;;;;0.60;0.32;;;23.00;90.80;;;;;;5072742;28;20032;-61
2022/01/23 14:54:25;;;;;;;0.57;0.28;;;23.00;90.80;;;;;;5072879;28;20111;-58
2022/01/23 14:56:56;;;;;;;1.40;0.38;;;23.00;90.80;;;;;;5072625;28;20132;-55
2022/01/23 14:59:24;;;;;;;0.80;0.47;;;23.10;90.80;;;;;;5072491;28;20053;-58
2022/01/23 15:01:51;;;;;;;0.98;0.47;;;23.00;90.80;;;;;;5072342;28;20378;-59
2022/01/23 15:04:20;;;;;;;0.50;0.40;;;23.00;90.80;;;;;;5072184;28;20024;-59
2022/01/23 15:06:51;;;;;;;0.75;0.32;;;23.00;90.80;;;;;;5072258;28;20429;-56
2022/01/23 15:09:21;;;;;;;0.47;0.30;;;23.00;90.80;;;;;;5072002;28;20032;-59
2022/01/23 15:11:50;;;;;;;0.50;0.30;;;23.00;90.80;;;;;;5071929;28;20025;-58
2022/01/23 15:14:18;;;;;;;0.30;0.30;;;23.00;90.90;;;;;;5072193;28;20025;-60
2022/01/23 15:16:48;;;;;;;0.73;0.20;;;23.00;90.90;;;;;;5072090;28;20031;-58
2022/01/23 15:19:16;;;;;;;0.47;0.35;;;23.00;90.90;;;;;;5072292;28;20020;-61
2022/01/23 15:21:43;;;;;;;0.65;0.20;;;23.00;90.90;;;;;;5072072;28;20061;-56
2022/01/23 15:24:10;;;;;;;1.15;0.25;;;23.00;90.90;;;;;;5072213;28;20454;-60
2022/01/23 15:26:40;;;;;;;1.20;0.88;;;23.00;90.90;;;;;;5071588;28;20036;-59
2022/01/23 15:29:08;;;;;;;1.55;0.73;;;23.00;90.90;;;;;;5071410;28;20071;-58
2022/01/23 15:31:38;;;;;;;1.08;0.40;;;23.00;91.00;;;;;;5072046;28;20028;-57
2022/01/23 15:34:05;;;;;;;0.25;0.20;;;23.00;91.00;;;;;;5071905;28;20028;-59
2022/01/23 15:36:33;;;;;;;0.75;0.25;;;23.00;91.00;;;;;;5071582;28;20024;-61
2022/01/23 15:39:01;;;;;;;0.80;0.40;;;23.00;91.00;;;;;;5071695;28;20031;-55
2022/01/23 15:41:29;;;;;;;0.60;0.22;;;22.90;91.00;;;;;;5071583;28;20429;-58
2022/01/23 15:43:56;;;;;;;0.17;0.17;;;22.90;91.00;;;;;;5071314;28;20033;-59
2022/01/23 15:46:23;;;;;;;0.73;0.40;;;22.90;91.00;;;;;;5071630;28;20559;-57
2022/01/23 15:48:51;;;;;;;0.20;0.15;;;22.90;91.00;;;;;;5071320;28;20041;-54
2022/01/23 15:51:19;;;;;;;0.90;0.28;;;22.90;91.00;;;;;;5070136;28;20036;-60
2022/01/23 15:53:46;;;;;;;0.40;0.20;;;22.90;91.00;;;;;;5070541;28;20028;-60
2022/01/23 15:56:14;;;;;;;1.35;0.40;;;22.90;91.00;;;;;;5070952;28;20049;-60
2022/01/23 15:58:41;;;;;;;1.38;0.40;;;22.90;91.00;;;;;;5072151;28;20029;-60
2022/01/23 16:01:09;;;;;;;0.68;0.40;;;22.90;91.00;;;;;;5075053;28;20412;-59
2022/01/23 16:03:36;;;;;;;0.95;0.45;;;22.90;91.00;;;;;;5074686;28;20091;-60
2022/01/23 16:06:03;;;;;;;0.90;0.43;;;22.90;91.10;;;;;;5074779;28;20024;-59
2022/01/23 16:08:31;;;;;;;1.48;0.40;;;22.90;91.10;;;;;;5073405;28;20020;-58
2022/01/23 16:11:00;;;;;;;0.20;0.20;;;22.90;91.10;;;;;;5075018;28;20028;-60
2022/01/23 16:13:29;;;;;;;0.90;0.50;;;22.90;91.10;;;;;;5073646;28;20127;-58
2022/01/23 16:15:56;;;;;;;0.85;0.30;;;22.90;91.10;;;;;;5074295;28;20111;-56
2022/01/23 16:18:23;;;;;;;0.65;0.38;;;22.90;91.10;;;;;;5072979;28;20040;-58
2022/01/23 16:20:52;;;;;;;0.20;0.20;;;22.90;91.10;;;;;;5074840;28;20024;-59
2022/01/23 16:23:20;;;;;;;0.43;0.43;;;22.90;91.10;;;;;;5075192;28;20024;-57
2022/01/23 16:25:47;;;;;;;0.57;0.28;;;22.90;91.10;;;;;;5074498;28;20033;-59
2022/01/23 16:28:15;;;;;;;1.52;0.43;;;22.90;91.10;;;;;;5074354;28;20496;-60
2022/01/23 16:30:54;;;;;;;0.30;0.30;;;22.80;91.10;;;;;;5074998;28;20035;-57
2022/01/23 16:33:27;;;;;;;1.27;0.68;;;22.90;91.20;;;;;;5074805;28;20027;-60
2022/01/23 16:35:55;;;;;;;1.05;0.32;;;22.80;91.10;;;;;;5074922;28;20024;-55